sensor_id;sensor_type;location;lat;lon;timestamp;temperature;humidity
50955;DHT22;36966;48.064;-0.792;2023-05-10T00:01:08;19.70;58.20
50955;DHT22;36966;48.064;-0.792;2023-05-10T00:03:28;19.70;58.10
50955;DHT22;36966;48.064;-0.792;2023-05-10T00:05:47;19.70;58.00
50955;DHT22;36966;48.064;-0.792;2023-05-10T00:08:06;19.70;58.20
50955;DHT22;36966;48.064;-0.792;2023-05-10T00:10:26;19.70;58.30
50955;DHT22;36966;48.064;-0.792;2023-05-10T00:12:45;19.70;58.20
50955;DHT22;36966;48.064;-0.792;2023-05-10T00:15:05;19.70;58.20
50955;DHT22;36966;48.064;-0.792;2023-05-10T00:17:24;19.70;58.20
50955;DHT22;36966;48.064;-0.792;2023-05-10T00:19:43;19.70;58.20
50955;DHT22;36966;48.064;-0.792;2023-05-10T00:22:02;19.70;58.30
50955;DHT22;36966;48.064;-0.792;2023-05-10T00:24:22;19.70;58.30
50955;DHT22;36966;48.064;-0.792;2023-05-10T00:26:41;19.70;58.30
50955;DHT22;36966;48.064;-0.792;2023-05-10T00:29:01;19.70;58.30
50955;DHT22;36966;48.064;-0.792;2023-05-10T00:31:20;19.70;58.30
50955;DHT22;36966;48.064;-0.792;2023-05-10T00:33:40;19.70;58.20
50955;DHT22;36966;48.064;-0.792;2023-05-10T00:35:59;19.60;58.30
50955;DHT22;36966;48.064;-0.792;2023-05-10T00:38:19;19.60;58.20
50955;DHT22;36966;48.064;-0.792;2023-05-10T00:40:41;19.70;58.10
50955;DHT22;36966;48.064;-0.792;2023-05-10T00:43:01;19.70;58.10
50955;DHT22;36966;48.064;-0.792;2023-05-10T00:45:20;19.70;58.20
50955;DHT22;36966;48.064;-0.792;2023-05-10T00:47:40;19.70;58.10
50955;DHT22;36966;48.064;-0.792;2023-05-10T00:49:59;19.60;58.10
50955;DHT22;36966;48.064;-0.792;2023-05-10T00:52:19;19.70;57.90
50955;DHT22;36966;48.064;-0.792;2023-05-10T00:54:38;19.60;58.10
50955;DHT22;36966;48.064;-0.792;2023-05-10T00:56:57;19.60;58.00
50955;DHT22;36966;48.064;-0.792;2023-05-10T00:59:18;19.60;58.10
50955;DHT22;36966;48.064;-0.792;2023-05-10T01:01:37;19.70;58.10
50955;DHT22;36966;48.064;-0.792;2023-05-10T01:03:58;19.60;58.00
50955;DHT22;36966;48.064;-0.792;2023-05-10T01:06:17;19.60;58.00
50955;DHT22;36966;48.064;-0.792;2023-05-10T01:08:36;19.60;58.00
50955;DHT22;36966;48.064;-0.792;2023-05-10T01:10:56;19.60;58.00
50955;DHT22;36966;48.064;-0.792;2023-05-10T01:15:54;19.60;58.00
50955;DHT22;36966;48.064;-0.792;2023-05-10T01:18:13;19.60;58.10
50955;DHT22;36966;48.064;-0.792;2023-05-10T01:20:35;19.60;58.00
50955;DHT22;36966;48.064;-0.792;2023-05-10T01:25:28;19.60;58.00
50955;DHT22;36966;48.064;-0.792;2023-05-10T01:27:57;19.50;58.00
50955;DHT22;36966;48.064;-0.792;2023-05-10T01:30:24;19.60;58.00
50955;DHT22;36966;48.064;-0.792;2023-05-10T01:35:29;19.60;57.90
50955;DHT22;36966;48.064;-0.792;2023-05-10T01:43:17;19.60;58.00
50955;DHT22;36966;48.064;-0.792;2023-05-10T01:45:41;19.50;58.00
50955;DHT22;36966;48.064;-0.792;2023-05-10T01:48:10;19.50;57.90
50955;DHT22;36966;48.064;-0.792;2023-05-10T01:50:30;19.50;57.90
50955;DHT22;36966;48.064;-0.792;2023-05-10T01:52:51;19.50;57.90
50955;DHT22;36966;48.064;-0.792;2023-05-10T01:55:18;19.50;57.90
50955;DHT22;36966;48.064;-0.792;2023-05-10T01:57:39;19.60;57.90
50955;DHT22;36966;48.064;-0.792;2023-05-10T01:59:59;19.60;57.80
50955;DHT22;36966;48.064;-0.792;2023-05-10T02:02:20;19.50;57.80
50955;DHT22;36966;48.064;-0.792;2023-05-10T02:04:39;19.50;57.80
50955;DHT22;36966;48.064;-0.792;2023-05-10T02:06:59;19.50;57.80
50955;DHT22;36966;48.064;-0.792;2023-05-10T02:09:19;19.50;57.80
50955;DHT22;36966;48.064;-0.792;2023-05-10T02:11:39;19.50;57.80
50955;DHT22;36966;48.064;-0.792;2023-05-10T02:14:00;19.50;57.80
50955;DHT22;36966;48.064;-0.792;2023-05-10T02:16:21;19.50;57.80
50955;DHT22;36966;48.064;-0.792;2023-05-10T02:18:42;19.50;57.80
50955;DHT22;36966;48.064;-0.792;2023-05-10T02:21:02;19.50;57.80
50955;DHT22;36966;48.064;-0.792;2023-05-10T02:23:22;19.50;57.80
50955;DHT22;36966;48.064;-0.792;2023-05-10T02:25:42;19.50;57.80
50955;DHT22;36966;48.064;-0.792;2023-05-10T02:28:05;19.40;57.80
50955;DHT22;36966;48.064;-0.792;2023-05-10T02:30:25;19.50;57.80
50955;DHT22;36966;48.064;-0.792;2023-05-10T02:32:45;19.50;57.80
50955;DHT22;36966;48.064;-0.792;2023-05-10T02:35:05;19.40;57.80
50955;DHT22;36966;48.064;-0.792;2023-05-10T02:37:24;19.50;57.80
50955;DHT22;36966;48.064;-0.792;2023-05-10T02:39:44;19.50;57.80
50955;DHT22;36966;48.064;-0.792;2023-05-10T02:42:04;19.50;57.70
50955;DHT22;36966;48.064;-0.792;2023-05-10T02:44:24;19.40;57.70
50955;DHT22;36966;48.064;-0.792;2023-05-10T02:46:44;19.50;57.80
50955;DHT22;36966;48.064;-0.792;2023-05-10T02:49:03;19.40;57.80
50955;DHT22;36966;48.064;-0.792;2023-05-10T02:51:24;19.50;57.80
50955;DHT22;36966;48.064;-0.792;2023-05-10T02:53:46;19.40;57.80
50955;DHT22;36966;48.064;-0.792;2023-05-10T02:56:10;19.40;57.80
50955;DHT22;36966;48.064;-0.792;2023-05-10T02:58:31;19.40;57.80
50955;DHT22;36966;48.064;-0.792;2023-05-10T03:00:50;19.40;57.80
50955;DHT22;36966;48.064;-0.792;2023-05-10T03:03:09;19.40;57.80
50955;DHT22;36966;48.064;-0.792;2023-05-10T03:05:29;19.40;57.80
50955;DHT22;36966;48.064;-0.792;2023-05-10T03:07:48;19.40;57.80
50955;DHT22;36966;48.064;-0.792;2023-05-10T03:10:07;19.40;57.80
50955;DHT22;36966;48.064;-0.792;2023-05-10T03:14:56;19.40;57.80
50955;DHT22;36966;48.064;-0.792;2023-05-10T03:17:30;19.40;57.80
50955;DHT22;36966;48.064;-0.792;2023-05-10T03:22:10;19.40;57.70
50955;DHT22;36966;48.064;-0.792;2023-05-10T03:24:32;19.40;57.70
50955;DHT22;36966;48.064;-0.792;2023-05-10T03:26:53;19.40;57.70
50955;DHT22;36966;48.064;-0.792;2023-05-10T03:29:12;19.40;57.70
50955;DHT22;36966;48.064;-0.792;2023-05-10T03:31:33;19.40;57.70
50955;DHT22;36966;48.064;-0.792;2023-05-10T03:33:52;19.40;57.70
50955;DHT22;36966;48.064;-0.792;2023-05-10T03:36:11;19.40;57.60
50955;DHT22;36966;48.064;-0.792;2023-05-10T03:38:31;19.30;57.60
50955;DHT22;36966;48.064;-0.792;2023-05-10T03:40:50;19.30;57.60
50955;DHT22;36966;48.064;-0.792;2023-05-10T03:43:10;19.40;57.60
50955;DHT22;36966;48.064;-0.792;2023-05-10T03:45:29;19.30;57.40
50955;DHT22;36966;48.064;-0.792;2023-05-10T03:47:49;19.30;57.60
50955;DHT22;36966;48.064;-0.792;2023-05-10T03:50:09;19.30;57.60
50955;DHT22;36966;48.064;-0.792;2023-05-10T03:52:29;19.30;57.60
50955;DHT22;36966;48.064;-0.792;2023-05-10T03:54:48;19.30;57.60
50955;DHT22;36966;48.064;-0.792;2023-05-10T03:57:07;19.30;57.50
50955;DHT22;36966;48.064;-0.792;2023-05-10T03:59:26;19.30;57.50
50955;DHT22;36966;48.064;-0.792;2023-05-10T04:01:45;19.30;57.50
50955;DHT22;36966;48.064;-0.792;2023-05-10T04:04:05;19.30;57.50
50955;DHT22;36966;48.064;-0.792;2023-05-10T04:06:24;19.30;57.50
50955;DHT22;36966;48.064;-0.792;2023-05-10T04:08:43;19.30;57.40
50955;DHT22;36966;48.064;-0.792;2023-05-10T04:11:11;19.30;57.40
50955;DHT22;36966;48.064;-0.792;2023-05-10T04:13:31;19.30;57.40
50955;DHT22;36966;48.064;-0.792;2023-05-10T04:15:51;19.30;57.40
50955;DHT22;36966;48.064;-0.792;2023-05-10T04:18:10;19.30;57.30
50955;DHT22;36966;48.064;-0.792;2023-05-10T04:20:31;19.20;57.30
50955;DHT22;36966;48.064;-0.792;2023-05-10T04:22:51;19.30;57.30
50955;DHT22;36966;48.064;-0.792;2023-05-10T04:25:10;19.30;57.30
50955;DHT22;36966;48.064;-0.792;2023-05-10T04:27:29;19.20;57.30
50955;DHT22;36966;48.064;-0.792;2023-05-10T04:29:49;19.30;57.30
50955;DHT22;36966;48.064;-0.792;2023-05-10T04:32:08;19.20;57.30
50955;DHT22;36966;48.064;-0.792;2023-05-10T04:34:29;19.20;57.30
50955;DHT22;36966;48.064;-0.792;2023-05-10T04:36:48;19.20;57.30
50955;DHT22;36966;48.064;-0.792;2023-05-10T04:39:08;19.20;57.30
50955;DHT22;36966;48.064;-0.792;2023-05-10T04:41:29;19.20;57.20
50955;DHT22;36966;48.064;-0.792;2023-05-10T04:43:48;19.20;57.20
50955;DHT22;36966;48.064;-0.792;2023-05-10T04:46:08;19.20;57.20
50955;DHT22;36966;48.064;-0.792;2023-05-10T04:48:27;19.20;57.30
50955;DHT22;36966;48.064;-0.792;2023-05-10T04:50:47;19.20;57.20
50955;DHT22;36966;48.064;-0.792;2023-05-10T04:53:06;19.20;57.20
50955;DHT22;36966;48.064;-0.792;2023-05-10T04:55:26;19.20;57.20
50955;DHT22;36966;48.064;-0.792;2023-05-10T04:57:45;19.20;57.20
50955;DHT22;36966;48.064;-0.792;2023-05-10T05:00:05;19.20;57.20
50955;DHT22;36966;48.064;-0.792;2023-05-10T05:02:25;19.20;57.20
50955;DHT22;36966;48.064;-0.792;2023-05-10T05:04:44;19.20;57.20
50955;DHT22;36966;48.064;-0.792;2023-05-10T05:07:04;19.20;57.10
50955;DHT22;36966;48.064;-0.792;2023-05-10T05:09:24;19.20;57.10
50955;DHT22;36966;48.064;-0.792;2023-05-10T05:11:43;19.20;57.10
50955;DHT22;36966;48.064;-0.792;2023-05-10T05:14:03;19.20;57.10
50955;DHT22;36966;48.064;-0.792;2023-05-10T05:16:22;19.20;57.10
50955;DHT22;36966;48.064;-0.792;2023-05-10T05:18:41;19.20;56.90
50955;DHT22;36966;48.064;-0.792;2023-05-10T05:21:01;19.20;56.70
50955;DHT22;36966;48.064;-0.792;2023-05-10T05:23:20;19.20;56.60
50955;DHT22;36966;48.064;-0.792;2023-05-10T05:25:39;19.20;56.50
50955;DHT22;36966;48.064;-0.792;2023-05-10T05:27:59;19.20;56.50
50955;DHT22;36966;48.064;-0.792;2023-05-10T05:30:19;19.20;56.50
50955;DHT22;36966;48.064;-0.792;2023-05-10T05:32:39;19.20;56.40
50955;DHT22;36966;48.064;-0.792;2023-05-10T05:34:58;19.30;56.30
50955;DHT22;36966;48.064;-0.792;2023-05-10T05:37:21;19.20;56.30
50955;DHT22;36966;48.064;-0.792;2023-05-10T05:39:40;19.20;56.30
50955;DHT22;36966;48.064;-0.792;2023-05-10T05:41:59;19.20;56.30
50955;DHT22;36966;48.064;-0.792;2023-05-10T05:44:19;19.20;56.30
50955;DHT22;36966;48.064;-0.792;2023-05-10T05:46:38;19.30;56.30
50955;DHT22;36966;48.064;-0.792;2023-05-10T05:49:01;19.30;56.20
50955;DHT22;36966;48.064;-0.792;2023-05-10T05:51:21;19.30;56.20
50955;DHT22;36966;48.064;-0.792;2023-05-10T05:53:40;19.20;56.20
50955;DHT22;36966;48.064;-0.792;2023-05-10T05:56:00;19.30;56.20
50955;DHT22;36966;48.064;-0.792;2023-05-10T05:58:19;19.20;56.20
50955;DHT22;36966;48.064;-0.792;2023-05-10T06:00:39;19.30;56.30
50955;DHT22;36966;48.064;-0.792;2023-05-10T06:02:58;19.30;56.20
50955;DHT22;36966;48.064;-0.792;2023-05-10T06:05:17;19.30;56.20
50955;DHT22;36966;48.064;-0.792;2023-05-10T06:07:36;19.30;56.20
50955;DHT22;36966;48.064;-0.792;2023-05-10T06:09:55;19.30;56.30
50955;DHT22;36966;48.064;-0.792;2023-05-10T06:12:15;19.30;56.30
50955;DHT22;36966;48.064;-0.792;2023-05-10T06:14:34;19.30;56.20
50955;DHT22;36966;48.064;-0.792;2023-05-10T06:16:53;19.30;56.30
50955;DHT22;36966;48.064;-0.792;2023-05-10T06:19:12;19.30;56.30
50955;DHT22;36966;48.064;-0.792;2023-05-10T06:21:32;19.30;56.30
50955;DHT22;36966;48.064;-0.792;2023-05-10T06:23:51;19.30;56.30
50955;DHT22;36966;48.064;-0.792;2023-05-10T06:26:11;19.30;56.30
50955;DHT22;36966;48.064;-0.792;2023-05-10T06:28:30;19.30;56.40
50955;DHT22;36966;48.064;-0.792;2023-05-10T06:30:51;19.30;56.40
50955;DHT22;36966;48.064;-0.792;2023-05-10T06:33:16;19.30;56.30
50955;DHT22;36966;48.064;-0.792;2023-05-10T06:35:35;19.30;56.30
50955;DHT22;36966;48.064;-0.792;2023-05-10T06:37:58;19.30;56.40
50955;DHT22;36966;48.064;-0.792;2023-05-10T06:40:18;19.30;56.40
50955;DHT22;36966;48.064;-0.792;2023-05-10T06:42:38;19.30;56.40
50955;DHT22;36966;48.064;-0.792;2023-05-10T06:44:57;19.30;56.40
50955;DHT22;36966;48.064;-0.792;2023-05-10T06:47:16;19.30;56.50
50955;DHT22;36966;48.064;-0.792;2023-05-10T06:49:36;19.30;56.50
50955;DHT22;36966;48.064;-0.792;2023-05-10T06:51:55;19.30;56.50
50955;DHT22;36966;48.064;-0.792;2023-05-10T06:54:15;19.30;56.50
50955;DHT22;36966;48.064;-0.792;2023-05-10T06:56:34;19.30;56.50
50955;DHT22;36966;48.064;-0.792;2023-05-10T06:58:53;19.30;56.50
50955;DHT22;36966;48.064;-0.792;2023-05-10T07:01:13;19.30;56.50
50955;DHT22;36966;48.064;-0.792;2023-05-10T07:03:32;19.30;56.50
50955;DHT22;36966;48.064;-0.792;2023-05-10T07:05:51;19.30;56.60
50955;DHT22;36966;48.064;-0.792;2023-05-10T07:08:10;19.30;56.60
50955;DHT22;36966;48.064;-0.792;2023-05-10T07:10:29;19.30;56.60
50955;DHT22;36966;48.064;-0.792;2023-05-10T07:12:49;19.30;56.70
50955;DHT22;36966;48.064;-0.792;2023-05-10T07:15:09;19.30;56.70
50955;DHT22;36966;48.064;-0.792;2023-05-10T07:17:28;19.30;56.70
50955;DHT22;36966;48.064;-0.792;2023-05-10T07:19:47;19.30;56.70
50955;DHT22;36966;48.064;-0.792;2023-05-10T07:22:07;19.40;56.80
50955;DHT22;36966;48.064;-0.792;2023-05-10T07:24:26;19.40;56.70
50955;DHT22;36966;48.064;-0.792;2023-05-10T07:26:45;19.40;56.80
50955;DHT22;36966;48.064;-0.792;2023-05-10T07:29:05;19.40;56.80
50955;DHT22;36966;48.064;-0.792;2023-05-10T07:31:24;19.40;56.80
50955;DHT22;36966;48.064;-0.792;2023-05-10T07:33:43;19.40;56.80
50955;DHT22;36966;48.064;-0.792;2023-05-10T07:36:02;19.40;56.90
50955;DHT22;36966;48.064;-0.792;2023-05-10T07:38:22;19.40;56.80
50955;DHT22;36966;48.064;-0.792;2023-05-10T07:40:41;19.50;56.80
50955;DHT22;36966;48.064;-0.792;2023-05-10T07:43:01;19.50;56.80
50955;DHT22;36966;48.064;-0.792;2023-05-10T07:45:21;19.50;56.90
50955;DHT22;36966;48.064;-0.792;2023-05-10T07:47:41;19.50;56.80
50955;DHT22;36966;48.064;-0.792;2023-05-10T07:50:00;19.50;56.80
50955;DHT22;36966;48.064;-0.792;2023-05-10T07:52:20;19.50;56.80
50955;DHT22;36966;48.064;-0.792;2023-05-10T07:54:39;19.50;56.80
50955;DHT22;36966;48.064;-0.792;2023-05-10T07:56:59;19.50;56.80
50955;DHT22;36966;48.064;-0.792;2023-05-10T07:59:19;19.50;56.80
50955;DHT22;36966;48.064;-0.792;2023-05-10T08:01:38;19.50;56.90
50955;DHT22;36966;48.064;-0.792;2023-05-10T08:03:57;19.50;56.90
50955;DHT22;36966;48.064;-0.792;2023-05-10T08:06:17;19.50;56.90
50955;DHT22;36966;48.064;-0.792;2023-05-10T08:08:36;19.50;57.00
50955;DHT22;36966;48.064;-0.792;2023-05-10T08:10:56;19.50;57.00
50955;DHT22;36966;48.064;-0.792;2023-05-10T08:13:15;19.50;57.00
50955;DHT22;36966;48.064;-0.792;2023-05-10T08:15:34;19.50;57.00
50955;DHT22;36966;48.064;-0.792;2023-05-10T08:17:54;19.50;57.00
50955;DHT22;36966;48.064;-0.792;2023-05-10T08:20:13;19.60;57.00
50955;DHT22;36966;48.064;-0.792;2023-05-10T08:22:35;19.50;57.00
50955;DHT22;36966;48.064;-0.792;2023-05-10T08:24:54;19.50;57.10
50955;DHT22;36966;48.064;-0.792;2023-05-10T08:27:14;19.50;57.10
50955;DHT22;36966;48.064;-0.792;2023-05-10T08:29:33;19.60;57.00
50955;DHT22;36966;48.064;-0.792;2023-05-10T08:31:53;19.60;57.00
50955;DHT22;36966;48.064;-0.792;2023-05-10T08:34:12;19.60;57.10
50955;DHT22;36966;48.064;-0.792;2023-05-10T08:36:33;19.70;57.10
50955;DHT22;36966;48.064;-0.792;2023-05-10T08:38:53;19.70;57.00
50955;DHT22;36966;48.064;-0.792;2023-05-10T08:41:13;19.70;57.10
50955;DHT22;36966;48.064;-0.792;2023-05-10T08:43:32;19.70;57.20
50955;DHT22;36966;48.064;-0.792;2023-05-10T08:45:52;19.70;57.20
50955;DHT22;36966;48.064;-0.792;2023-05-10T08:48:13;19.60;57.20
50955;DHT22;36966;48.064;-0.792;2023-05-10T08:50:33;19.60;57.20
50955;DHT22;36966;48.064;-0.792;2023-05-10T08:52:55;19.60;57.20
50955;DHT22;36966;48.064;-0.792;2023-05-10T08:55:16;19.60;57.20
50955;DHT22;36966;48.064;-0.792;2023-05-10T08:57:36;19.60;57.20
50955;DHT22;36966;48.064;-0.792;2023-05-10T08:59:55;19.70;57.20
50955;DHT22;36966;48.064;-0.792;2023-05-10T09:02:15;19.70;57.30
50955;DHT22;36966;48.064;-0.792;2023-05-10T09:04:35;19.60;57.20
50955;DHT22;36966;48.064;-0.792;2023-05-10T09:06:55;19.60;57.20
50955;DHT22;36966;48.064;-0.792;2023-05-10T09:09:14;19.70;57.30
50955;DHT22;36966;48.064;-0.792;2023-05-10T09:11:35;19.60;57.30
50955;DHT22;36966;48.064;-0.792;2023-05-10T09:13:54;19.70;57.30
50955;DHT22;36966;48.064;-0.792;2023-05-10T09:16:14;19.70;57.40
50955;DHT22;36966;48.064;-0.792;2023-05-10T09:18:33;19.70;57.40
50955;DHT22;36966;48.064;-0.792;2023-05-10T09:20:52;19.70;57.30
50955;DHT22;36966;48.064;-0.792;2023-05-10T09:23:12;19.70;57.20
50955;DHT22;36966;48.064;-0.792;2023-05-10T09:25:31;19.70;57.20
50955;DHT22;36966;48.064;-0.792;2023-05-10T09:27:52;19.80;57.20
50955;DHT22;36966;48.064;-0.792;2023-05-10T09:30:30;19.90;57.30
50955;DHT22;36966;48.064;-0.792;2023-05-10T09:32:49;19.90;57.20
50955;DHT22;36966;48.064;-0.792;2023-05-10T09:35:13;19.90;57.10
50955;DHT22;36966;48.064;-0.792;2023-05-10T09:37:33;20.00;57.10
50955;DHT22;36966;48.064;-0.792;2023-05-10T09:39:53;20.00;57.10
50955;DHT22;36966;48.064;-0.792;2023-05-10T09:42:13;20.00;57.10
50955;DHT22;36966;48.064;-0.792;2023-05-10T09:44:37;20.10;56.80
50955;DHT22;36966;48.064;-0.792;2023-05-10T09:46:57;20.10;56.80
50955;DHT22;36966;48.064;-0.792;2023-05-10T09:49:17;20.10;56.90
50955;DHT22;36966;48.064;-0.792;2023-05-10T09:51:36;20.10;56.90
50955;DHT22;36966;48.064;-0.792;2023-05-10T09:54:15;20.10;57.10
50955;DHT22;36966;48.064;-0.792;2023-05-10T09:56:35;20.10;57.20
50955;DHT22;36966;48.064;-0.792;2023-05-10T09:59:01;20.10;57.00
50955;DHT22;36966;48.064;-0.792;2023-05-10T10:01:22;20.10;57.00
50955;DHT22;36966;48.064;-0.792;2023-05-10T10:03:44;20.10;57.10
50955;DHT22;36966;48.064;-0.792;2023-05-10T10:06:07;20.10;57.10
50955;DHT22;36966;48.064;-0.792;2023-05-10T10:08:26;20.00;57.00
50955;DHT22;36966;48.064;-0.792;2023-05-10T10:11:04;20.00;57.00
50955;DHT22;36966;48.064;-0.792;2023-05-10T10:13:23;20.10;56.90
50955;DHT22;36966;48.064;-0.792;2023-05-10T10:15:42;20.00;57.00
50955;DHT22;36966;48.064;-0.792;2023-05-10T10:18:02;20.10;57.10
50955;DHT22;36966;48.064;-0.792;2023-05-10T10:20:25;20.00;57.10
50955;DHT22;36966;48.064;-0.792;2023-05-10T10:22:45;20.00;56.90
50955;DHT22;36966;48.064;-0.792;2023-05-10T10:25:05;20.10;57.10
50955;DHT22;36966;48.064;-0.792;2023-05-10T10:27:26;20.10;57.00
50955;DHT22;36966;48.064;-0.792;2023-05-10T10:32:21;20.10;57.10
50955;DHT22;36966;48.064;-0.792;2023-05-10T10:34:42;20.10;56.60
50955;DHT22;36966;48.064;-0.792;2023-05-10T10:37:05;20.10;57.00
50955;DHT22;36966;48.064;-0.792;2023-05-10T10:39:25;20.10;57.00
50955;DHT22;36966;48.064;-0.792;2023-05-10T10:41:52;20.10;57.00
50955;DHT22;36966;48.064;-0.792;2023-05-10T10:49:19;20.10;57.50
50955;DHT22;36966;48.064;-0.792;2023-05-10T10:51:39;20.10;57.70
50955;DHT22;36966;48.064;-0.792;2023-05-10T10:54:08;20.10;57.70
50955;DHT22;36966;48.064;-0.792;2023-05-10T10:56:36;20.10;57.80
50955;DHT22;36966;48.064;-0.792;2023-05-10T10:58:56;20.10;57.80
50955;DHT22;36966;48.064;-0.792;2023-05-10T11:01:18;20.00;57.80
50955;DHT22;36966;48.064;-0.792;2023-05-10T11:03:37;20.00;57.90
50955;DHT22;36966;48.064;-0.792;2023-05-10T11:06:00;20.00;58.10
50955;DHT22;36966;48.064;-0.792;2023-05-10T11:08:27;20.00;58.20
50955;DHT22;36966;48.064;-0.792;2023-05-10T11:10:51;19.90;58.10
50955;DHT22;36966;48.064;-0.792;2023-05-10T11:13:11;19.90;58.20
50955;DHT22;36966;48.064;-0.792;2023-05-10T11:15:35;19.90;58.30
50955;DHT22;36966;48.064;-0.792;2023-05-10T11:17:55;20.00;58.90
50955;DHT22;36966;48.064;-0.792;2023-05-10T11:20:15;20.00;58.80
50955;DHT22;36966;48.064;-0.792;2023-05-10T11:22:49;20.00;58.70
50955;DHT22;36966;48.064;-0.792;2023-05-10T11:25:10;20.00;58.80
50955;DHT22;36966;48.064;-0.792;2023-05-10T11:27:32;20.10;58.80
50955;DHT22;36966;48.064;-0.792;2023-05-10T11:29:52;20.10;58.80
50955;DHT22;36966;48.064;-0.792;2023-05-10T11:32:11;20.10;58.90
50955;DHT22;36966;48.064;-0.792;2023-05-10T11:34:35;20.20;58.80
50955;DHT22;36966;48.064;-0.792;2023-05-10T11:36:54;20.20;58.90
50955;DHT22;36966;48.064;-0.792;2023-05-10T11:39:14;20.20;58.60
50955;DHT22;36966;48.064;-0.792;2023-05-10T11:41:33;20.20;58.50
50955;DHT22;36966;48.064;-0.792;2023-05-10T11:43:53;20.20;58.50
50955;DHT22;36966;48.064;-0.792;2023-05-10T11:46:13;20.20;58.40
50955;DHT22;36966;48.064;-0.792;2023-05-10T11:48:32;20.30;58.40
50955;DHT22;36966;48.064;-0.792;2023-05-10T11:50:52;20.20;58.40
50955;DHT22;36966;48.064;-0.792;2023-05-10T11:53:16;20.20;58.30
50955;DHT22;36966;48.064;-0.792;2023-05-10T11:55:35;20.20;58.40
50955;DHT22;36966;48.064;-0.792;2023-05-10T11:57:59;20.20;58.40
50955;DHT22;36966;48.064;-0.792;2023-05-10T12:00:19;20.30;58.50
50955;DHT22;36966;48.064;-0.792;2023-05-10T12:02:39;20.30;58.60
50955;DHT22;36966;48.064;-0.792;2023-05-10T12:04:58;20.30;58.80
50955;DHT22;36966;48.064;-0.792;2023-05-10T12:07:18;20.30;58.80
50955;DHT22;36966;48.064;-0.792;2023-05-10T12:09:42;20.30;59.00
50955;DHT22;36966;48.064;-0.792;2023-05-10T12:12:01;20.20;59.10
50955;DHT22;36966;48.064;-0.792;2023-05-10T12:14:21;20.30;59.30
50955;DHT22;36966;48.064;-0.792;2023-05-10T12:16:41;20.20;59.50
50955;DHT22;36966;48.064;-0.792;2023-05-10T12:19:02;20.20;59.50
50955;DHT22;36966;48.064;-0.792;2023-05-10T12:21:22;20.30;59.40
50955;DHT22;36966;48.064;-0.792;2023-05-10T12:23:41;20.30;59.20
50955;DHT22;36966;48.064;-0.792;2023-05-10T12:26:01;20.30;59.10
50955;DHT22;36966;48.064;-0.792;2023-05-10T12:28:21;20.20;59.00
50955;DHT22;36966;48.064;-0.792;2023-05-10T12:30:40;20.30;58.90
50955;DHT22;36966;48.064;-0.792;2023-05-10T12:33:02;20.30;58.80
50955;DHT22;36966;48.064;-0.792;2023-05-10T12:35:29;20.20;59.00
50955;DHT22;36966;48.064;-0.792;2023-05-10T12:37:49;20.30;59.10
50955;DHT22;36966;48.064;-0.792;2023-05-10T12:40:10;20.30;59.30
50955;DHT22;36966;48.064;-0.792;2023-05-10T12:42:32;20.30;59.30
50955;DHT22;36966;48.064;-0.792;2023-05-10T12:44:55;20.20;59.10
50955;DHT22;36966;48.064;-0.792;2023-05-10T12:47:14;20.20;59.00
50955;DHT22;36966;48.064;-0.792;2023-05-10T12:49:34;20.20;58.90
50955;DHT22;36966;48.064;-0.792;2023-05-10T12:51:53;20.20;59.00
50955;DHT22;36966;48.064;-0.792;2023-05-10T12:54:12;20.10;59.20
50955;DHT22;36966;48.064;-0.792;2023-05-10T12:56:31;20.10;59.20
50955;DHT22;36966;48.064;-0.792;2023-05-10T12:58:51;20.10;59.40
50955;DHT22;36966;48.064;-0.792;2023-05-10T13:01:10;20.10;59.40
50955;DHT22;36966;48.064;-0.792;2023-05-10T13:03:29;20.10;59.50
50955;DHT22;36966;48.064;-0.792;2023-05-10T13:05:49;20.10;59.40
50955;DHT22;36966;48.064;-0.792;2023-05-10T13:08:08;20.10;59.60
50955;DHT22;36966;48.064;-0.792;2023-05-10T13:10:30;20.10;59.60
50955;DHT22;36966;48.064;-0.792;2023-05-10T13:12:50;20.10;59.70
50955;DHT22;36966;48.064;-0.792;2023-05-10T13:15:10;20.10;59.60
50955;DHT22;36966;48.064;-0.792;2023-05-10T13:17:29;20.10;59.80
50955;DHT22;36966;48.064;-0.792;2023-05-10T13:19:48;20.10;59.70
50955;DHT22;36966;48.064;-0.792;2023-05-10T13:22:08;20.20;59.60
50955;DHT22;36966;48.064;-0.792;2023-05-10T13:24:27;20.20;59.70
50955;DHT22;36966;48.064;-0.792;2023-05-10T13:26:46;20.20;59.70
50955;DHT22;36966;48.064;-0.792;2023-05-10T13:29:05;20.20;59.70
50955;DHT22;36966;48.064;-0.792;2023-05-10T13:31:24;20.20;59.60
50955;DHT22;36966;48.064;-0.792;2023-05-10T13:33:44;20.20;59.70
50955;DHT22;36966;48.064;-0.792;2023-05-10T13:36:25;20.20;59.50
50955;DHT22;36966;48.064;-0.792;2023-05-10T13:38:44;20.30;59.50
50955;DHT22;36966;48.064;-0.792;2023-05-10T13:41:03;20.20;59.30
50955;DHT22;36966;48.064;-0.792;2023-05-10T13:43:23;20.30;59.30
50955;DHT22;36966;48.064;-0.792;2023-05-10T13:45:42;20.30;59.20
50955;DHT22;36966;48.064;-0.792;2023-05-10T13:48:01;20.30;59.30
50955;DHT22;36966;48.064;-0.792;2023-05-10T13:50:21;20.30;59.20
50955;DHT22;36966;48.064;-0.792;2023-05-10T13:52:40;20.30;59.00
50955;DHT22;36966;48.064;-0.792;2023-05-10T13:54:59;20.30;58.90
50955;DHT22;36966;48.064;-0.792;2023-05-10T13:57:18;20.30;58.90
50955;DHT22;36966;48.064;-0.792;2023-05-10T13:59:37;20.40;58.90
50955;DHT22;36966;48.064;-0.792;2023-05-10T14:02:00;20.30;58.70
50955;DHT22;36966;48.064;-0.792;2023-05-10T14:04:21;20.30;58.70
50955;DHT22;36966;48.064;-0.792;2023-05-10T14:06:40;20.30;58.70
50955;DHT22;36966;48.064;-0.792;2023-05-10T14:09:00;20.30;58.70
50955;DHT22;36966;48.064;-0.792;2023-05-10T14:11:19;20.30;58.50
50955;DHT22;36966;48.064;-0.792;2023-05-10T14:13:46;20.40;58.60
50955;DHT22;36966;48.064;-0.792;2023-05-10T14:16:08;20.30;58.50
50955;DHT22;36966;48.064;-0.792;2023-05-10T14:18:28;20.30;58.60
50955;DHT22;36966;48.064;-0.792;2023-05-10T14:20:47;20.30;58.70
50955;DHT22;36966;48.064;-0.792;2023-05-10T14:23:06;20.30;58.80
50955;DHT22;36966;48.064;-0.792;2023-05-10T14:25:26;20.30;58.90
50955;DHT22;36966;48.064;-0.792;2023-05-10T14:27:45;20.20;59.00
50955;DHT22;36966;48.064;-0.792;2023-05-10T14:30:04;20.20;59.10
50955;DHT22;36966;48.064;-0.792;2023-05-10T14:32:27;20.20;59.30
50955;DHT22;36966;48.064;-0.792;2023-05-10T14:34:47;20.20;59.10
50955;DHT22;36966;48.064;-0.792;2023-05-10T14:37:06;20.20;59.30
50955;DHT22;36966;48.064;-0.792;2023-05-10T14:39:29;20.20;59.30
50955;DHT22;36966;48.064;-0.792;2023-05-10T14:41:49;20.20;59.30
50955;DHT22;36966;48.064;-0.792;2023-05-10T14:44:12;20.20;59.50
50955;DHT22;36966;48.064;-0.792;2023-05-10T14:46:34;20.20;59.60
50955;DHT22;36966;48.064;-0.792;2023-05-10T14:48:53;20.10;59.90
50955;DHT22;36966;48.064;-0.792;2023-05-10T14:51:13;20.10;60.10
50955;DHT22;36966;48.064;-0.792;2023-05-10T14:54:18;20.10;60.10
50955;DHT22;36966;48.064;-0.792;2023-05-10T14:56:31;20.10;60.20
50955;DHT22;36966;48.064;-0.792;2023-05-10T14:58:50;20.10;60.20